createdAt,value
2023-01-31T00:00:26.856Z,80.6
2023-01-31T00:01:30.015Z,80.7
2023-01-31T00:02:33.650Z,80.7
2023-01-31T00:03:37.977Z,80.7
2023-01-31T00:04:43.181Z,80.6
2023-01-31T00:05:45.995Z,80.6
2023-01-31T00:06:49.089Z,80.8
2023-01-31T00:07:52.896Z,80.8
2023-01-31T00:08:55.973Z,80.6
2023-01-31T00:09:59.110Z,80.6
2023-01-31T00:11:02.654Z,80.5
2023-01-31T00:12:05.263Z,80.3
2023-01-31T00:13:08.355Z,80.1
2023-01-31T00:14:11.931Z,80
2023-01-31T00:15:15.027Z,79.9
2023-01-31T00:16:18.758Z,79.9
2023-01-31T00:17:21.895Z,80
2023-01-31T00:18:25.020Z,80.2
2023-01-31T00:19:28.571Z,80.5
2023-01-31T00:20:32.095Z,80.5
2023-01-31T00:21:37.282Z,80.5
2023-01-31T00:22:41.667Z,80.5
2023-01-31T00:23:45.128Z,80.7
2023-01-31T00:24:48.577Z,80.7
2023-01-31T00:25:51.289Z,80.8
2023-01-31T00:26:54.601Z,80.9
2023-01-31T00:27:57.187Z,80.9
2023-01-31T00:29:00.383Z,80.9
2023-01-31T00:30:03.810Z,80.8
2023-01-31T00:31:06.911Z,80.7
2023-01-31T00:32:11.085Z,81
2023-01-31T00:33:13.954Z,80.8
2023-01-31T00:34:17.581Z,80.8
2023-01-31T00:35:22.478Z,80.9
2023-01-31T00:36:25.953Z,80.8
2023-01-31T00:37:29.633Z,80.9
2023-01-31T00:38:33.031Z,81.1
2023-01-31T00:39:39.214Z,81
2023-01-31T00:40:41.838Z,80.9
2023-01-31T00:41:44.928Z,81.1
2023-01-31T00:42:48.010Z,80.9
2023-01-31T00:43:50.626Z,80.8
2023-01-31T00:44:53.668Z,80.8
2023-01-31T00:45:56.861Z,80.6
2023-01-31T00:46:59.976Z,80.6
2023-01-31T00:48:02.930Z,80.8
2023-01-31T00:49:06.016Z,80.8
2023-01-31T00:50:09.407Z,80.9
2023-01-31T00:51:12.499Z,81.2
2023-01-31T00:52:16.462Z,81.2
2023-01-31T00:53:19.616Z,81.2
2023-01-31T00:54:38.467Z,81.1
2023-01-31T00:55:42.515Z,80.8
2023-01-31T00:56:45.514Z,80.9
2023-01-31T00:57:47.965Z,80.6
2023-01-31T00:58:51.347Z,80.6
2023-01-31T00:59:54.665Z,80.6
2023-01-31T01:00:57.517Z,80.8
2023-01-31T01:02:01.936Z,80.6
2023-01-31T01:03:05.372Z,80.6
2023-01-31T01:04:09.002Z,80.8
2023-01-31T01:05:11.825Z,80.9
2023-01-31T01:06:14.605Z,81
2023-01-31T01:07:17.819Z,80.8
2023-01-31T01:08:21.040Z,80.8
2023-01-31T01:09:24.413Z,80.8
2023-01-31T01:10:27.514Z,80.6
2023-01-31T01:11:32.054Z,80.6
2023-01-31T01:12:35.833Z,80.8
2023-01-31T01:13:39.047Z,81
2023-01-31T01:14:42.419Z,81.1
2023-01-31T01:15:45.999Z,81.4
2023-01-31T01:16:49.131Z,81.1
2023-01-31T01:17:52.986Z,81.1
2023-01-31T01:18:56.058Z,81.1
2023-01-31T01:19:59.487Z,80.9
2023-01-31T01:21:01.930Z,80.7
2023-01-31T01:22:04.453Z,80.7
2023-01-31T01:23:07.296Z,80.5
2023-01-31T01:24:10.854Z,80.4
2023-01-31T01:25:14.848Z,80.4
2023-01-31T01:26:17.929Z,80.4
2023-01-31T01:27:21.616Z,80.5
2023-01-31T01:28:24.068Z,80.7
2023-01-31T01:29:27.861Z,80.7
2023-01-31T01:30:31.579Z,80.5
2023-01-31T01:31:37.125Z,80.4
2023-01-31T01:32:40.563Z,80.3
2023-01-31T01:33:44.269Z,80.4
2023-01-31T01:34:46.976Z,80.4
2023-01-31T01:35:50.770Z,80.5
2023-01-31T01:36:53.842Z,80.6
2023-01-31T01:37:57.300Z,80.7
2023-01-31T01:39:00.285Z,80.8
2023-01-31T01:40:03.603Z,81.1
2023-01-31T01:41:07.058Z,81.2
2023-01-31T01:42:09.863Z,81.2
2023-01-31T01:43:13.849Z,81.3
2023-01-31T01:44:16.554Z,81.5
2023-01-31T01:45:23.552Z,81.6
2023-01-31T01:46:28.250Z,81.7
2023-01-31T01:47:32.656Z,81.9
2023-01-31T01:48:36.501Z,81.9
2023-01-31T01:49:39.304Z,81.9
2023-01-31T01:50:42.372Z,81.9
2023-01-31T01:51:45.185Z,81.8
2023-01-31T01:52:48.442Z,81.8
2023-01-31T01:53:51.302Z,81.7
2023-01-31T01:54:54.956Z,81.5
2023-01-31T01:55:57.783Z,81.7
2023-01-31T01:57:01.916Z,81.9
2023-01-31T01:58:05.328Z,81.9
2023-01-31T01:59:08.504Z,81.9
2023-01-31T02:00:12.183Z,81.9
2023-01-31T02:01:16.174Z,81.8
2023-01-31T02:02:19.400Z,81.9
2023-01-31T02:03:22.713Z,81.9
2023-01-31T02:04:25.946Z,81.9
2023-01-31T02:05:30.483Z,81.8
2023-01-31T02:06:34.481Z,82
2023-01-31T02:07:38.860Z,81.9
2023-01-31T02:08:41.963Z,81.7
2023-01-31T02:09:44.747Z,81.9
2023-01-31T02:10:47.791Z,81.7
2023-01-31T02:11:51.671Z,81.7
2023-01-31T02:12:55.437Z,81.9
2023-01-31T02:13:58.527Z,81.9
2023-01-31T02:15:02.053Z,81.8
2023-01-31T02:16:04.642Z,81.8
2023-01-31T02:17:07.578Z,81.7
2023-01-31T02:18:10.480Z,81.8
2023-01-31T02:19:13.756Z,81.8
2023-01-31T02:20:17.145Z,81.7
2023-01-31T02:21:19.590Z,81.5
2023-01-31T02:22:22.623Z,81.5
2023-01-31T02:23:26.335Z,81.6
2023-01-31T02:24:29.205Z,81.7
2023-01-31T02:25:32.300Z,81.7
2023-01-31T02:26:34.782Z,81.7
2023-01-31T02:27:38.519Z,81.7
2023-01-31T02:28:41.612Z,81.7
2023-01-31T02:29:44.932Z,81.8
2023-01-31T02:30:49.098Z,81.9
2023-01-31T02:31:52.238Z,81.9
2023-01-31T02:32:55.569Z,81.8
2023-01-31T02:33:57.887Z,82
2023-01-31T02:35:01.188Z,82.3
2023-01-31T02:36:04.273Z,82.4
2023-01-31T02:37:07.079Z,82.5
2023-01-31T02:38:10.115Z,82.7
2023-01-31T02:39:13.186Z,82.7
2023-01-31T02:40:16.333Z,82.7
2023-01-31T02:41:19.615Z,82.8
2023-01-31T02:42:24.263Z,82.8
2023-01-31T02:43:28.051Z,82.8
2023-01-31T02:44:31.448Z,82.7
2023-01-31T02:45:33.885Z,82.6
2023-01-31T02:46:38.359Z,82.5
2023-01-31T02:47:40.632Z,82.5
2023-01-31T02:48:43.379Z,82.4
2023-01-31T02:49:46.671Z,82.4
2023-01-31T02:50:49.381Z,82.5
2023-01-31T02:51:52.180Z,82.4
2023-01-31T02:52:55.193Z,82.7
2023-01-31T02:53:57.696Z,82.8
2023-01-31T02:55:01.736Z,82.7
2023-01-31T02:56:05.095Z,82.6
2023-01-31T02:57:08.195Z,82.5
2023-01-31T02:58:11.054Z,82.5
2023-01-31T02:59:13.912Z,82.4
2023-01-31T03:00:16.999Z,82.3
2023-01-31T03:01:20.588Z,82.3
2023-01-31T03:02:24.861Z,82.4
2023-01-31T03:03:28.400Z,82.6
2023-01-31T03:04:30.352Z,82.6
2023-01-31T03:05:33.705Z,82.6
2023-01-31T03:06:36.724Z,82.8
2023-01-31T03:07:40.102Z,83.1
2023-01-31T03:08:42.815Z,83.4
2023-01-31T03:09:46.185Z,83.6
2023-01-31T03:10:48.701Z,83.8
2023-01-31T03:11:51.586Z,83.9
2023-01-31T03:12:54.448Z,83.9
2023-01-31T03:13:57.551Z,84
2023-01-31T03:15:00.679Z,84
2023-01-31T03:16:04.118Z,84.1
2023-01-31T03:17:07.552Z,84.2
2023-01-31T03:18:11.045Z,84.2
2023-01-31T03:19:13.977Z,84.2
2023-01-31T03:20:18.452Z,84.3
2023-01-31T03:21:21.916Z,84.3
2023-01-31T03:22:24.633Z,84.5
2023-01-31T03:23:27.545Z,84.5
2023-01-31T03:24:30.330Z,84.4
2023-01-31T03:25:33.724Z,84.4
2023-01-31T03:26:38.456Z,84.6
2023-01-31T03:27:42.062Z,84.7
2023-01-31T03:28:44.884Z,84.6
2023-01-31T03:29:48.259Z,84.6
2023-01-31T03:30:52.156Z,84.5
2023-01-31T03:31:57.028Z,84.5
2023-01-31T03:33:00.671Z,84.5
2023-01-31T03:34:04.488Z,84.4
2023-01-31T03:35:07.571Z,84.5
2023-01-31T03:36:10.447Z,84.5
2023-01-31T03:37:13.163Z,84.6
2023-01-31T03:38:17.646Z,84.7
2023-01-31T03:39:20.980Z,84.8
2023-01-31T03:40:24.699Z,84.7
2023-01-31T03:41:27.587Z,84.7
2023-01-31T03:42:31.326Z,84.7
2023-01-31T03:43:34.312Z,84.8
2023-01-31T03:44:37.782Z,84.9
2023-01-31T03:45:40.528Z,85
2023-01-31T03:46:43.778Z,85
2023-01-31T03:47:47.813Z,84.9
2023-01-31T03:48:50.821Z,85
2023-01-31T03:49:54.662Z,85.1
2023-01-31T03:50:57.494Z,85.2
2023-01-31T03:52:00.625Z,85.2
2023-01-31T03:53:03.638Z,85.2
2023-01-31T03:54:06.770Z,85.1
2023-01-31T03:55:10.057Z,85.2
2023-01-31T03:56:13.284Z,85.2
2023-01-31T03:57:17.470Z,85.2
2023-01-31T03:58:20.597Z,85.3
2023-01-31T03:59:23.330Z,85.3
2023-01-31T04:00:26.502Z,85.3
2023-01-31T04:01:29.791Z,85.3
2023-01-31T04:02:34.293Z,85.3
2023-01-31T04:03:38.398Z,85.2
2023-01-31T04:04:41.311Z,85.2
2023-01-31T04:05:45.055Z,85.1
2023-01-31T04:06:48.164Z,85.2
2023-01-31T04:07:50.892Z,85.1
2023-01-31T04:08:54.594Z,85.1
2023-01-31T04:09:57.954Z,85
2023-01-31T04:11:00.687Z,85
2023-01-31T04:12:03.863Z,84.7
2023-01-31T04:13:07.294Z,84.8
2023-01-31T04:14:10.379Z,84.9
2023-01-31T04:15:14.479Z,85
2023-01-31T04:16:18.409Z,85.1
2023-01-31T04:17:21.821Z,85.2
2023-01-31T04:18:24.978Z,85.2
2023-01-31T04:19:28.040Z,85.2
2023-01-31T04:20:32.056Z,85.3
2023-01-31T04:21:36.857Z,85.3
2023-01-31T04:22:39.530Z,85.3
2023-01-31T04:23:42.260Z,85.3
2023-01-31T04:24:45.560Z,85.2
2023-01-31T04:25:48.271Z,85.1
2023-01-31T04:26:51.515Z,85
2023-01-31T04:27:54.765Z,85
2023-01-31T04:28:57.572Z,85
2023-01-31T04:29:59.745Z,85.1
2023-01-31T04:31:04.247Z,85
2023-01-31T04:32:08.167Z,85.1
2023-01-31T04:33:12.336Z,85.1
2023-01-31T04:34:15.441Z,85.5
2023-01-31T04:35:20.543Z,86.1
2023-01-31T04:36:24.309Z,86.1
2023-01-31T04:37:28.024Z,86.2
2023-01-31T04:38:31.883Z,86.1
2023-01-31T04:39:35.539Z,86
2023-01-31T04:40:39.097Z,86
2023-01-31T04:41:42.752Z,86.2
2023-01-31T04:42:45.856Z,86.5
2023-01-31T04:43:48.360Z,86.4
2023-01-31T04:44:51.444Z,86.2
2023-01-31T04:45:54.235Z,86.3
2023-01-31T04:46:57.824Z,86.6
2023-01-31T04:48:01.117Z,86.5
2023-01-31T04:49:04.534Z,86.3
2023-01-31T04:50:09.093Z,86.3
2023-01-31T04:51:12.711Z,86.3
2023-01-31T04:52:16.070Z,86.2
2023-01-31T04:53:19.547Z,86.4
2023-01-31T04:54:22.480Z,86.4
2023-01-31T04:55:25.340Z,86.3
2023-01-31T04:56:29.068Z,86.4
2023-01-31T04:57:33.287Z,86.4
2023-01-31T04:58:37.275Z,86.6
2023-01-31T04:59:40.479Z,86.5
2023-01-31T05:00:43.498Z,86.7
2023-01-31T05:01:46.929Z,86.7
2023-01-31T05:02:49.913Z,86.8
2023-01-31T05:03:53.279Z,86.9
2023-01-31T05:04:56.070Z,87.1
2023-01-31T05:05:59.807Z,87.2
2023-01-31T05:07:03.219Z,87.3
2023-01-31T05:08:07.673Z,87.3
2023-01-31T05:09:10.915Z,87.4
2023-01-31T05:10:14.339Z,87.4
2023-01-31T05:11:16.823Z,87.3
2023-01-31T05:12:19.967Z,87.3
2023-01-31T05:13:24.025Z,87.3
2023-01-31T05:14:27.127Z,87.4
2023-01-31T05:15:29.897Z,87.6
2023-01-31T05:16:33.941Z,87.6
2023-01-31T05:17:37.558Z,87.6
2023-01-31T05:18:40.718Z,87.7
2023-01-31T05:19:43.810Z,87.8
2023-01-31T05:20:47.130Z,87.9
2023-01-31T05:21:50.969Z,88.1
2023-01-31T05:22:54.736Z,88
2023-01-31T05:23:58.005Z,88.2
2023-01-31T05:25:01.195Z,88.2
2023-01-31T05:26:05.063Z,88.2
2023-01-31T05:27:08.003Z,88.1
2023-01-31T05:28:11.651Z,88.2
2023-01-31T05:29:15.870Z,88.3
2023-01-31T05:30:18.875Z,88.4
2023-01-31T05:31:22.889Z,88.4
2023-01-31T05:32:26.191Z,88.5
2023-01-31T05:33:32.481Z,88.4
2023-01-31T05:34:35.960Z,88.3
2023-01-31T05:35:39.591Z,88.5
2023-01-31T05:36:42.680Z,88.5
2023-01-31T05:37:46.270Z,88.8
2023-01-31T05:38:49.769Z,88.7
2023-01-31T05:39:52.540Z,88.7
2023-01-31T05:40:56.000Z,88.9
2023-01-31T05:41:58.711Z,89
2023-01-31T05:43:03.213Z,89.2
2023-01-31T05:44:07.354Z,89.1
2023-01-31T05:45:09.783Z,89
2023-01-31T05:46:12.842Z,89.1
2023-01-31T05:47:16.384Z,89.2
2023-01-31T05:48:19.410Z,89.3
2023-01-31T05:49:23.425Z,89.4
2023-01-31T05:50:26.766Z,89.7
2023-01-31T05:51:29.936Z,89.7
2023-01-31T05:52:33.425Z,89.8
2023-01-31T05:53:37.240Z,90
2023-01-31T05:54:41.048Z,90.3
2023-01-31T05:55:43.579Z,90.6
2023-01-31T05:56:47.053Z,90.5
2023-01-31T05:57:50.345Z,90.6
2023-01-31T05:58:53.525Z,90.6
2023-01-31T05:59:55.694Z,90.9
2023-01-31T06:00:58.895Z,91.2
2023-01-31T06:02:03.451Z,91.2
2023-01-31T06:03:07.021Z,91.1
2023-01-31T06:04:10.291Z,91.3
2023-01-31T06:05:13.163Z,91.5
2023-01-31T06:06:16.520Z,91.5
2023-01-31T06:07:19.580Z,91.4
2023-01-31T06:08:23.225Z,91.3
2023-01-31T06:09:26.694Z,91.4
2023-01-31T06:10:30.848Z,91.6
2023-01-31T06:11:34.779Z,91.7
2023-01-31T06:12:37.963Z,91.9
2023-01-31T06:13:41.666Z,91.9
2023-01-31T06:14:45.118Z,92.1
2023-01-31T06:15:48.180Z,92.2
2023-01-31T06:16:51.857Z,92.3
2023-01-31T06:17:54.756Z,92.2
2023-01-31T06:18:57.992Z,92.4
2023-01-31T06:20:01.719Z,92.6
2023-01-31T06:21:05.408Z,92.5
2023-01-31T06:22:08.489Z,92.5
2023-01-31T06:23:12.118Z,92.5
2023-01-31T06:24:15.201Z,92.6
2023-01-31T06:25:19.404Z,92.7
2023-01-31T06:26:23.395Z,93
2023-01-31T06:27:26.980Z,93.1
2023-01-31T06:28:32.265Z,93.3
2023-01-31T06:29:36.077Z,93.6
2023-01-31T06:30:39.955Z,93.7
2023-01-31T06:31:43.942Z,94
2023-01-31T06:32:47.720Z,94.2
2023-01-31T06:33:50.749Z,94.2
2023-01-31T06:34:52.915Z,94.2
2023-01-31T06:35:56.422Z,94.2
2023-01-31T06:36:59.458Z,94.2
2023-01-31T06:38:03.128Z,94.2
2023-01-31T06:39:06.836Z,94.2
2023-01-31T06:40:10.266Z,94.1
2023-01-31T06:41:13.767Z,94.1
2023-01-31T06:42:17.232Z,94.1
2023-01-31T06:43:19.759Z,94
2023-01-31T06:44:23.309Z,93.9
2023-01-31T06:45:29.710Z,93.8
2023-01-31T06:46:33.820Z,93.6
2023-01-31T06:47:37.589Z,93.7
2023-01-31T06:48:40.908Z,93.5
2023-01-31T06:49:43.619Z,93.6
2023-01-31T06:50:46.977Z,93.5
2023-01-31T06:51:50.357Z,93.6
2023-01-31T06:52:54.332Z,93.6
2023-01-31T06:53:58.266Z,93.7
2023-01-31T06:55:01.724Z,93.7
2023-01-31T06:56:04.543Z,93.5
2023-01-31T06:57:08.007Z,93.4
2023-01-31T06:58:10.783Z,93.6
2023-01-31T06:59:13.593Z,93.7
2023-01-31T07:00:17.195Z,93.8
2023-01-31T07:01:20.653Z,93.8
2023-01-31T07:02:23.850Z,93.7
2023-01-31T07:03:26.780Z,93.7
2023-01-31T07:04:31.319Z,93.7
2023-01-31T07:05:35.330Z,93.7
2023-01-31T07:06:39.681Z,93.9
2023-01-31T07:07:43.188Z,93.9
2023-01-31T07:08:46.371Z,93.8
2023-01-31T07:09:49.456Z,93.8
2023-01-31T07:10:53.491Z,93.9
2023-01-31T07:11:55.765Z,94
2023-01-31T07:12:59.379Z,94
2023-01-31T07:14:02.455Z,94.2
2023-01-31T07:15:05.885Z,94.3
2023-01-31T07:16:10.220Z,94.2
2023-01-31T07:17:14.162Z,94.3
2023-01-31T07:18:17.240Z,94.4
2023-01-31T07:19:20.601Z,94.3
2023-01-31T07:20:23.762Z,94.3
2023-01-31T07:21:26.767Z,94.3
2023-01-31T07:22:31.612Z,94.3
2023-01-31T07:23:35.581Z,94.3
2023-01-31T07:24:38.771Z,94.4
2023-01-31T07:25:42.488Z,94.3
2023-01-31T07:26:46.307Z,94.4
2023-01-31T07:27:49.833Z,94.4
2023-01-31T07:28:53.283Z,94.3
2023-01-31T07:29:56.391Z,94.3
2023-01-31T07:30:59.580Z,94.3
2023-01-31T07:32:03.514Z,94.3
2023-01-31T07:33:06.711Z,94.4
2023-01-31T07:34:09.853Z,94.5
2023-01-31T07:35:12.478Z,94.6
2023-01-31T07:36:15.755Z,94.7
2023-01-31T07:37:18.531Z,94.6
2023-01-31T07:38:21.705Z,94.7
2023-01-31T07:39:25.405Z,94.7
2023-01-31T07:40:28.521Z,94.9
2023-01-31T07:41:32.715Z,95
2023-01-31T07:42:36.639Z,94.9
2023-01-31T07:43:39.764Z,94.8
2023-01-31T07:44:42.937Z,94.7
2023-01-31T07:45:47.172Z,94.8
2023-01-31T07:46:50.543Z,94.7
2023-01-31T07:47:54.116Z,94.7
2023-01-31T07:48:57.482Z,94.7
2023-01-31T07:50:01.584Z,94.7
2023-01-31T07:51:04.971Z,94.8
2023-01-31T07:52:10.511Z,94.8
2023-01-31T07:53:13.494Z,94.8
2023-01-31T07:54:16.496Z,94.8
2023-01-31T07:55:21.787Z,94.7
2023-01-31T07:56:25.205Z,94.7
2023-01-31T07:57:28.358Z,94.7
2023-01-31T07:58:33.023Z,94.5
2023-01-31T07:59:36.177Z,94.4
2023-01-31T08:00:39.145Z,94.4
2023-01-31T08:01:42.990Z,94.4
2023-01-31T08:02:46.711Z,94.4
2023-01-31T08:03:51.073Z,94.3
2023-01-31T08:04:54.715Z,94.3
2023-01-31T08:05:58.198Z,94.1
2023-01-31T08:07:01.287Z,94
2023-01-31T08:08:04.751Z,94
2023-01-31T08:09:08.466Z,93.8
2023-01-31T08:10:11.564Z,93.7
2023-01-31T08:11:14.322Z,93.8
2023-01-31T08:12:18.072Z,93.6
2023-01-31T08:13:21.093Z,93.6
2023-01-31T08:14:24.540Z,93.5
2023-01-31T08:15:28.200Z,93.3
2023-01-31T08:16:32.783Z,93.3
2023-01-31T08:17:36.474Z,93.4
2023-01-31T08:18:40.186Z,93.3
2023-01-31T08:19:44.023Z,93.1
2023-01-31T08:20:47.351Z,93
2023-01-31T08:21:50.704Z,92.8
2023-01-31T08:22:53.877Z,92.7
2023-01-31T08:23:57.552Z,92.7
2023-01-31T08:25:01.020Z,92.7
2023-01-31T08:26:04.367Z,92.8
2023-01-31T08:27:07.729Z,92.9
2023-01-31T08:28:11.205Z,92.9
2023-01-31T08:29:14.590Z,92.8
2023-01-31T08:30:17.652Z,92.8
2023-01-31T08:31:21.209Z,92.7
2023-01-31T08:32:25.305Z,92.6
2023-01-31T08:33:29.579Z,92.5
2023-01-31T08:34:33.980Z,92.5
2023-01-31T08:35:37.457Z,92.4
2023-01-31T08:36:41.153Z,92.3
2023-01-31T08:37:44.695Z,92.3
2023-01-31T08:38:48.707Z,92.3
2023-01-31T08:39:51.642Z,92.3
2023-01-31T08:40:54.778Z,92.2
2023-01-31T08:41:57.760Z,92.2
2023-01-31T08:43:00.589Z,92.1
2023-01-31T08:44:06.124Z,92
2023-01-31T08:45:09.883Z,92.1
2023-01-31T08:46:12.869Z,92
2023-01-31T08:47:16.176Z,92.1
2023-01-31T08:48:19.657Z,92
2023-01-31T08:49:23.080Z,91.8
2023-01-31T08:50:30.312Z,91.7
2023-01-31T08:51:35.993Z,91.5
2023-01-31T08:52:39.401Z,91.5
2023-01-31T08:53:42.814Z,91.5
2023-01-31T08:54:46.679Z,91.4
2023-01-31T08:55:50.476Z,91.5
2023-01-31T08:56:54.109Z,91.4
2023-01-31T08:58:01.364Z,91.7
2023-01-31T08:59:04.425Z,91.7
2023-01-31T09:00:07.921Z,91.6
2023-01-31T09:01:11.302Z,91.3
2023-01-31T09:02:14.974Z,91.4
2023-01-31T09:03:17.780Z,91.3
2023-01-31T09:04:21.818Z,91.5
2023-01-31T09:05:25.254Z,91.3
2023-01-31T09:06:30.149Z,91.5
2023-01-31T09:07:34.483Z,91.3
2023-01-31T09:08:37.910Z,91.2
2023-01-31T09:09:41.558Z,91.2
2023-01-31T09:10:45.652Z,91.2
2023-01-31T09:11:48.458Z,91.2
2023-01-31T09:12:52.109Z,91.3
2023-01-31T09:13:55.201Z,91.4
2023-01-31T09:14:58.469Z,91.5
2023-01-31T09:16:01.586Z,91.6
2023-01-31T09:17:06.489Z,91.4
2023-01-31T09:18:09.511Z,91.4
2023-01-31T09:19:11.946Z,91.7
2023-01-31T09:20:14.947Z,91.6
2023-01-31T09:21:18.090Z,91.5
2023-01-31T09:22:21.593Z,91.5
2023-01-31T09:23:25.702Z,91.4
2023-01-31T09:24:29.091Z,91.5
2023-01-31T09:25:49.757Z,91.4
2023-01-31T09:26:53.996Z,91.4
2023-01-31T09:27:57.512Z,91.4
2023-01-31T09:29:00.686Z,91.5
2023-01-31T09:30:04.488Z,91.6
2023-01-31T09:31:08.466Z,91.7
2023-01-31T09:32:12.200Z,91.8
2023-01-31T09:33:15.647Z,92
2023-01-31T09:34:19.363Z,92.4
2023-01-31T09:35:23.523Z,92.6
2023-01-31T09:36:26.790Z,92.9
2023-01-31T09:37:31.286Z,93
2023-01-31T09:38:37.118Z,93.2
2023-01-31T09:39:40.193Z,93.5
2023-01-31T09:40:43.714Z,93.7
2023-01-31T09:41:47.165Z,93.9
2023-01-31T09:42:50.258Z,93.7
2023-01-31T09:43:54.014Z,93.7
2023-01-31T09:44:57.757Z,93.8
2023-01-31T09:46:01.247Z,94.1
2023-01-31T09:47:04.800Z,94.1
2023-01-31T09:48:07.975Z,94
2023-01-31T09:49:11.640Z,93.9
2023-01-31T09:50:15.024Z,93.8
2023-01-31T09:51:18.139Z,93.8
2023-01-31T09:52:21.743Z,93.7
2023-01-31T09:53:25.537Z,94
2023-01-31T09:54:30.806Z,94
2023-01-31T09:55:36.472Z,94.1
2023-01-31T09:56:39.577Z,93.7
2023-01-31T09:57:42.936Z,93.5
2023-01-31T09:58:45.938Z,93.6
2023-01-31T09:59:49.418Z,93.3
2023-01-31T10:00:52.852Z,93.3
2023-01-31T10:01:59.634Z,93.3
2023-01-31T10:03:02.806Z,92.9
2023-01-31T10:04:06.569Z,92.9
2023-01-31T10:05:10.212Z,92.9
2023-01-31T10:06:13.672Z,92.8
2023-01-31T10:07:17.532Z,92.5
2023-01-31T10:08:20.936Z,92.5
2023-01-31T10:09:24.313Z,92.1
2023-01-31T10:10:27.832Z,92.4
2023-01-31T10:11:32.270Z,92.8
2023-01-31T10:12:37.364Z,92.4
2023-01-31T10:13:40.811Z,92
2023-01-31T10:14:44.072Z,91.7
2023-01-31T10:15:47.735Z,91.7
2023-01-31T10:16:50.248Z,91.9
2023-01-31T10:17:53.670Z,92
2023-01-31T10:18:56.468Z,91.7
2023-01-31T10:19:59.224Z,91.9
2023-01-31T10:21:06.064Z,92.1
2023-01-31T10:22:09.780Z,92.1
2023-01-31T10:23:12.969Z,91.7
2023-01-31T10:24:16.342Z,91.3
2023-01-31T10:25:20.014Z,91.5
2023-01-31T10:26:24.070Z,91.7
2023-01-31T10:27:29.102Z,91.5
2023-01-31T10:28:33.401Z,91.7
2023-01-31T10:29:37.272Z,91.9
2023-01-31T10:30:40.647Z,92.1
2023-01-31T10:31:46.036Z,92
2023-01-31T10:32:49.574Z,92.1
2023-01-31T10:33:53.198Z,92.1
2023-01-31T10:34:55.904Z,92
2023-01-31T10:35:59.250Z,91.9
2023-01-31T10:37:02.132Z,92.1
2023-01-31T10:38:05.971Z,92.5
2023-01-31T10:39:10.118Z,92.6
2023-01-31T10:40:13.596Z,93
2023-01-31T10:41:17.035Z,93.2
2023-01-31T10:42:20.766Z,93.5
2023-01-31T10:43:23.893Z,93.6
2023-01-31T10:44:26.743Z,93.9
2023-01-31T10:45:33.448Z,94.4
2023-01-31T10:46:36.750Z,94.7
2023-01-31T10:47:40.127Z,94.9
2023-01-31T10:48:48.328Z,95.2
2023-01-31T10:49:51.835Z,95.5
2023-01-31T10:50:55.374Z,95.6
2023-01-31T10:51:58.326Z,95.9
2023-01-31T10:53:01.963Z,96.1
2023-01-31T10:54:05.384Z,96.3
2023-01-31T10:55:08.561Z,96.5
2023-01-31T10:56:12.364Z,96.5
2023-01-31T10:57:15.245Z,96.7
2023-01-31T10:58:19.276Z,96.9
2023-01-31T10:59:22.561Z,97
2023-01-31T11:00:26.261Z,97
2023-01-31T11:01:29.447Z,97
2023-01-31T11:02:33.842Z,97
2023-01-31T11:03:37.026Z,97.2
2023-01-31T11:04:40.391Z,97.1
2023-01-31T11:05:44.122Z,96.9
2023-01-31T11:06:47.751Z,96.8
2023-01-31T11:07:51.085Z,96.9
2023-01-31T11:08:53.850Z,96.8
2023-01-31T11:09:56.641Z,97.9
2023-01-31T11:11:00.155Z,97.3
2023-01-31T11:12:03.251Z,97.3
2023-01-31T11:13:06.700Z,96.9
2023-01-31T11:14:10.461Z,96.7
2023-01-31T11:15:13.524Z,96.7
2023-01-31T11:16:16.719Z,96.7
2023-01-31T11:17:20.503Z,96.7
2023-01-31T11:18:23.948Z,97.1
2023-01-31T11:19:26.958Z,97.3
2023-01-31T11:20:30.195Z,98
2023-01-31T11:21:33.643Z,98.4
2023-01-31T11:22:37.412Z,98.4
2023-01-31T11:23:40.785Z,98.3
2023-01-31T11:24:44.508Z,98.4
2023-01-31T11:25:48.171Z,98.4
2023-01-31T11:26:51.816Z,98.5
2023-01-31T11:27:54.949Z,98.6
2023-01-31T11:28:58.134Z,98.5
2023-01-31T11:30:02.465Z,98.5
2023-01-31T11:31:06.149Z,98.6
2023-01-31T11:32:09.622Z,98.6
2023-01-31T11:33:12.846Z,98.6
2023-01-31T11:34:16.230Z,98.6
2023-01-31T11:35:19.888Z,98.9
2023-01-31T11:36:23.070Z,98.9
2023-01-31T11:37:26.763Z,98.9
2023-01-31T11:38:30.484Z,99
2023-01-31T11:39:33.631Z,99.1
2023-01-31T11:40:37.389Z,98.9
2023-01-31T11:41:40.721Z,99
2023-01-31T11:42:44.237Z,99
2023-01-31T11:43:47.729Z,99
2023-01-31T11:44:51.219Z,98.9
2023-01-31T11:45:54.812Z,99
2023-01-31T11:46:57.967Z,99.3
2023-01-31T11:48:01.305Z,99.3
2023-01-31T11:49:04.462Z,99.3
2023-01-31T11:50:07.858Z,99.3
2023-01-31T11:51:11.322Z,99.5
2023-01-31T11:52:14.475Z,99.5
2023-01-31T11:53:17.845Z,99.2
2023-01-31T11:54:21.639Z,99.4
2023-01-31T11:55:25.129Z,99.5
2023-01-31T11:56:28.173Z,99.5
2023-01-31T11:57:31.555Z,99.6
2023-01-31T11:58:35.706Z,99.9
2023-01-31T11:59:39.115Z,99.9
2023-01-31T12:00:42.103Z,99.9
2023-01-31T12:01:45.581Z,99.9
2023-01-31T12:02:48.397Z,99.9
2023-01-31T12:04:05.691Z,100
2023-01-31T12:05:09.470Z,100
2023-01-31T12:06:13.131Z,100
2023-01-31T12:07:15.851Z,100
2023-01-31T12:08:19.875Z,100
2023-01-31T12:09:23.391Z,100
2023-01-31T12:10:26.677Z,100
2023-01-31T12:11:30.462Z,100
2023-01-31T12:12:33.877Z,100
2023-01-31T12:13:37.294Z,100
2023-01-31T12:14:40.586Z,100
2023-01-31T12:15:43.189Z,100
2023-01-31T12:16:46.828Z,100
2023-01-31T12:17:50.659Z,100
2023-01-31T12:18:54.109Z,100
2023-01-31T12:19:57.438Z,100
2023-01-31T12:21:00.289Z,100
2023-01-31T12:22:03.372Z,100
2023-01-31T12:23:06.995Z,100
2023-01-31T12:24:10.550Z,100
2023-01-31T12:25:14.009Z,100
2023-01-31T12:26:17.887Z,100
2023-01-31T12:27:21.410Z,100
2023-01-31T12:28:25.182Z,100
2023-01-31T12:29:28.257Z,100
2023-01-31T12:30:32.648Z,100
2023-01-31T12:31:36.559Z,100
2023-01-31T12:32:40.191Z,100
2023-01-31T12:33:44.257Z,100
2023-01-31T12:35:10.304Z,100
2023-01-31T12:36:13.721Z,100
2023-01-31T12:37:17.435Z,100
2023-01-31T12:38:20.514Z,100
2023-01-31T12:39:24.251Z,100
2023-01-31T12:40:31.997Z,100
2023-01-31T12:41:35.586Z,100
2023-01-31T12:42:39.269Z,100
2023-01-31T12:43:42.460Z,100
2023-01-31T12:44:45.353Z,100
2023-01-31T12:45:49.148Z,100
2023-01-31T12:47:12.608Z,100
2023-01-31T12:48:15.758Z,100
2023-01-31T12:49:19.661Z,100
2023-01-31T12:50:23.500Z,100
2023-01-31T12:51:26.293Z,100
2023-01-31T12:52:29.424Z,100
2023-01-31T12:53:33.461Z,100
2023-01-31T12:54:37.160Z,100
2023-01-31T12:55:41.825Z,100
2023-01-31T12:56:45.502Z,100
2023-01-31T12:57:48.934Z,100
2023-01-31T12:59:17.314Z,100
2023-01-31T13:00:20.413Z,100
2023-01-31T13:01:24.352Z,100
2023-01-31T13:02:28.485Z,100
2023-01-31T13:03:32.140Z,100
2023-01-31T13:04:35.960Z,100
2023-01-31T13:05:39.299Z,100
2023-01-31T13:06:43.665Z,100
2023-01-31T13:07:47.386Z,100
2023-01-31T13:09:09.654Z,100
2023-01-31T13:10:13.440Z,100
2023-01-31T13:11:17.161Z,100
2023-01-31T13:12:21.148Z,100
2023-01-31T13:13:24.249Z,100
2023-01-31T13:14:27.651Z,100
2023-01-31T13:15:30.685Z,100
2023-01-31T13:16:34.791Z,100
2023-01-31T13:17:37.585Z,100
2023-01-31T13:18:40.748Z,100
2023-01-31T13:19:44.951Z,100
2023-01-31T13:20:51.074Z,100
2023-01-31T13:21:55.519Z,100
2023-01-31T13:22:58.991Z,100
2023-01-31T13:24:02.803Z,100
2023-01-31T13:25:06.464Z,100
2023-01-31T13:26:09.851Z,100
2023-01-31T13:27:13.001Z,100
2023-01-31T13:28:17.025Z,100
2023-01-31T13:29:20.400Z,100
2023-01-31T13:30:23.876Z,100
2023-01-31T13:31:27.835Z,100
2023-01-31T13:32:32.403Z,100
2023-01-31T13:33:35.858Z,100
2023-01-31T13:34:39.546Z,100
2023-01-31T13:35:44.596Z,100
2023-01-31T13:36:48.333Z,100
2023-01-31T13:37:52.591Z,100
2023-01-31T13:38:56.839Z,100
2023-01-31T13:40:00.324Z,100
2023-01-31T13:41:03.486Z,100
2023-01-31T13:42:06.969Z,100
2023-01-31T13:43:10.330Z,100
2023-01-31T13:44:14.027Z,100
2023-01-31T13:45:17.919Z,100
2023-01-31T13:46:22.438Z,100
2023-01-31T13:47:26.210Z,100
2023-01-31T13:48:29.186Z,100
2023-01-31T13:49:32.779Z,100
2023-01-31T13:50:36.904Z,100
2023-01-31T13:51:40.724Z,100
2023-01-31T13:52:43.539Z,100
2023-01-31T13:53:46.656Z,100
2023-01-31T13:54:49.497Z,100
2023-01-31T13:55:52.613Z,100
2023-01-31T13:56:55.197Z,100
2023-01-31T13:58:00.256Z,100
2023-01-31T13:59:04.216Z,100
2023-01-31T14:00:09.257Z,100
2023-01-31T14:01:13.701Z,100
2023-01-31T14:02:17.859Z,100
2023-01-31T14:03:21.727Z,100
2023-01-31T14:04:26.344Z,100
2023-01-31T14:05:31.109Z,100
2023-01-31T14:06:35.271Z,100
2023-01-31T14:07:39.501Z,100
2023-01-31T14:08:43.937Z,100
2023-01-31T14:09:47.315Z,100
2023-01-31T14:10:53.173Z,100
2023-01-31T14:11:56.448Z,100
2023-01-31T14:12:59.826Z,100
2023-01-31T14:14:02.552Z,100
2023-01-31T14:15:05.936Z,100
2023-01-31T14:16:09.738Z,100